»·PEaware :: N1410F KSBP-KSBA

N1410F :: KSBP-KSBA

FLIGHT INFORMATION

Flight Status: Arrived
Operator: Privately registered:
United States
More flights under this callsign
Pilot: Ryan C. (15122)
Aircraft: CESSNA 172 SKYHAWK
(C172)
More flights by this aircraft type
Origin: KSBP San Luis Co Regl
United States
Destination: KSBA Santa Barbara Mun
United States
More flights between these airports :: More routes between these airports
Route: +GVO
File this flight plan on PilotEdge
Remarks:
Altitude:
(Current/Filed)
5,500ft
Speed:
(Current/Filed)
125kts
Departed: 29-Dec-17 07:20 PM
Arrived: 29-Dec-17 08:01 PM
Distance/Time
Traveled:
62nm/0:40
Distance/Time
To Go:
Arrived

Flight Plot

Page will automatically refresh every two minutes.


Map Options




Map Legend


Flown Route
Filed Route
Departure Airport
Arrival Airport
Navaid (VOR, NDB)
Fix

Horizontal Profiles

Position Reports

Time Latitude Longitude Heading Altitude Ground
Speed
29-Dec-17 19:14 35.237915 -120.638649 270 215ft 0kts
29-Dec-17 19:15 35.237915 -120.638649 270 215ft 0kts
29-Dec-17 19:16 35.237915 -120.638649 270 215ft 0kts
29-Dec-17 19:17 35.237915 -120.638649 270 215ft 0kts
29-Dec-17 19:18 35.237915 -120.638649 270 215ft 0kts
29-Dec-17 19:19 35.237915 -120.638649 270 215ft 0kts
29-Dec-17 19:20 35.237915 -120.638649 270 215ft 0kts
29-Dec-17 19:21 35.237915 -120.638649 270 215ft 0kts
29-Dec-17 19:22 35.237300 -120.639041 129 215ft 7kts
29-Dec-17 19:23 35.235199 -120.635357 124 215ft 16kts
29-Dec-17 19:24 35.233232 -120.632023 301 215ft 0kts
29-Dec-17 19:25 35.233294 -120.632224 275 215ft 6kts
29-Dec-17 19:26 35.235099 -120.637067 301 250ft 69kts
29-Dec-17 19:27 35.247704 -120.661068 296 1149ft 89kts
29-Dec-17 19:28 35.259179 -120.687088 294 2141ft 88kts
29-Dec-17 19:29 35.271551 -120.713503 302 3047ft 91kts
29-Dec-17 19:30 35.279739 -120.741548 241 3868ft 95kts
29-Dec-17 19:31 35.254929 -120.739575 147 4614ft 106kts
29-Dec-17 19:32 35.231537 -120.715688 143 5003ft 120kts
29-Dec-17 19:33 35.204352 -120.691101 145 5001ft 121kts
29-Dec-17 19:34 35.177317 -120.666729 144 5001ft 121kts
29-Dec-17 19:35 35.149838 -120.642019 144 5002ft 122kts
29-Dec-17 19:36 35.122648 -120.617561 144 5003ft 122kts
29-Dec-17 19:37 35.095337 -120.593004 144 5004ft 121kts
29-Dec-17 19:38 35.068157 -120.568525 143 5005ft 121kts
29-Dec-17 19:39 35.040980 -120.544194 143 5007ft 121kts
29-Dec-17 19:40 35.013935 -120.519940 143 5008ft 120kts
29-Dec-17 19:41 34.987041 -120.495845 143 5009ft 120kts
29-Dec-17 19:42 34.960248 -120.471864 143 5010ft 119kts
29-Dec-17 19:43 34.933502 -120.447936 143 5010ft 119kts
29-Dec-17 19:44 34.906767 -120.424103 143 5010ft 119kts
29-Dec-17 19:45 34.880231 -120.400368 143 5010ft 119kts
29-Dec-17 19:46 34.853502 -120.376496 143 5010ft 119kts
29-Dec-17 19:47 34.826808 -120.352699 143 5011ft 119kts
29-Dec-17 19:48 34.800449 -120.329293 143 5012ft 119kts
29-Dec-17 19:49 34.773859 -120.305354 143 5014ft 119kts
29-Dec-17 19:50 34.747028 -120.281824 144 5015ft 119kts
29-Dec-17 19:51 34.720350 -120.257976 143 5018ft 119kts
29-Dec-17 19:52 34.693701 -120.234395 144 5019ft 119kts
29-Dec-17 19:53 34.667073 -120.210675 143 5019ft 119kts
29-Dec-17 19:54 34.640387 -120.187023 143 5019ft 119kts
29-Dec-17 19:55 34.613682 -120.163382 143 5019ft 119kts
29-Dec-17 19:56 34.586906 -120.139773 143 5019ft 119kts
29-Dec-17 19:57 34.560196 -120.116150 143 5019ft 119kts
29-Dec-17 19:58 34.533313 -120.092415 140 5015ft 119kts
29-Dec-17 19:59 34.508008 -120.066703 143 4592ft 122kts
29-Dec-17 20:00 34.489260 -120.033105 119 3882ft 121kts
29-Dec-17 20:01 34.473659 -119.997385 104 3211ft 121kts
29-Dec-17 20:02 34.465234 -119.958123 104 2580ft 120kts
29-Dec-17 20:03 34.456816 -119.919322 102 1887ft 118kts
29-Dec-17 20:04 34.450399 -119.886487 103 1337ft 87kts
29-Dec-17 20:05 34.446336 -119.860177 96 782ft 76kts
29-Dec-17 20:06 34.437333 -119.843613 177 271ft 68kts
29-Dec-17 20:07 34.423884 -119.839503 161 17ft 20kts
29-Dec-17 20:08 34.423504 -119.837347 344 17ft 12kts
29-Dec-17 20:09 34.427027 -119.838466 343 17ft 15kts
29-Dec-17 20:10 34.428761 -119.838976 345 17ft 3kts
29-Dec-17 20:11 34.431202 -119.838113 71 17ft 16kts
29-Dec-17 20:12 34.432709 -119.835812 78 17ft 0kts

Navigation Log

Ident Type
1. KSBP Airport
2. GVO Navaid
3. KSBA Airport